Time;durP1;ratioP1;P1;durP2;ratioP2;P2;SDS_P1;SDS_P2;PMS_P1;PMS_P2;Temp;Humidity;BMP_temperature;BMP_pressure;BME280_temperature;BME280_humidity;BME280_pressure;Samples;Min_cycle;Max_cycle;Signal;HPM_P1;HPM_P2
2022/03/21 00:01:04;;;;;;;97.63;57.47;;;4.40;99.90;;;;;;5069186;28;20269;-67
2022/03/21 00:03:30;;;;;;;98.25;57.78;;;4.40;99.90;;;;;;5070723;28;20193;-71
2022/03/21 00:05:58;;;;;;;97.32;59.10;;;4.40;99.90;;;;;;5070615;28;20268;-71
2022/03/21 00:08:24;;;;;;;91.40;56.80;;;4.40;99.90;;;;;;5063150;28;20190;-71
2022/03/21 00:10:52;;;;;;;99.43;59.05;;;4.40;99.90;;;;;;5089577;28;20190;-70
2022/03/21 00:13:18;;;;;;;103.25;58.50;;;4.40;99.90;;;;;;5090708;28;20213;-71
2022/03/21 00:15:45;;;;;;;97.18;57.17;;;4.40;99.90;;;;;;5088837;28;20633;-72
2022/03/21 00:18:14;;;;;;;89.55;56.50;;;4.40;99.90;;;;;;5088714;28;20190;-71
2022/03/21 00:20:41;;;;;;;93.88;58.25;;;4.50;99.90;;;;;;5086654;28;20189;-69
2022/03/21 00:23:07;;;;;;;92.53;55.88;;;4.50;99.90;;;;;;5068823;28;20313;-68
2022/03/21 00:25:33;;;;;;;90.78;55.30;;;4.50;99.90;;;;;;5048016;28;20711;-68
2022/03/21 00:27:58;;;;;;;96.70;56.10;;;4.50;99.90;;;;;;5064103;28;20191;-71
2022/03/21 00:30:26;;;;;;;92.95;55.65;;;4.50;99.90;;;;;;5050479;28;20604;-69
2022/03/21 00:32:51;;;;;;;99.35;56.25;;;4.50;99.90;;;;;;5046745;28;20246;-70
2022/03/21 00:35:18;;;;;;;91.55;56.40;;;4.50;99.90;;;;;;5049611;28;20245;-70
2022/03/21 00:37:45;;;;;;;93.63;56.28;;;4.50;99.90;;;;;;5049319;28;20194;-69
2022/03/21 00:40:12;;;;;;;91.10;56.10;;;4.50;99.90;;;;;;5047364;28;20629;-69
2022/03/21 00:42:40;;;;;;;94.45;56.05;;;4.50;99.90;;;;;;5048365;28;20187;-70
2022/03/21 00:45:11;;;;;;;95.20;55.67;;;4.40;99.90;;;;;;5051673;28;20209;-70
2022/03/21 00:47:37;;;;;;;92.65;55.42;;;4.40;99.90;;;;;;5040915;28;20230;-69
2022/03/21 00:50:05;;;;;;;89.40;54.50;;;4.40;99.90;;;;;;5046978;28;20188;-68
2022/03/21 00:52:32;;;;;;;85.78;52.38;;;4.40;99.90;;;;;;5047139;28;20246;-70
2022/03/21 00:54:58;;;;;;;86.50;54.25;;;4.40;99.90;;;;;;5053749;28;20210;-70
2022/03/21 00:57:24;;;;;;;89.93;53.30;;;4.50;99.90;;;;;;5052883;28;20597;-69
2022/03/21 00:59:50;;;;;;;86.00;52.40;;;4.50;99.90;;;;;;5049762;28;20191;-69
2022/03/21 01:02:15;;;;;;;86.38;50.38;;;4.50;99.90;;;;;;5045548;28;20666;-71
2022/03/21 01:04:42;;;;;;;87.85;52.33;;;4.50;99.90;;;;;;5046352;28;20187;-71
2022/03/21 01:07:08;;;;;;;86.57;50.83;;;4.50;99.90;;;;;;5046738;28;20704;-70
2022/03/21 01:09:33;;;;;;;85.00;52.15;;;4.50;99.90;;;;;;5045627;28;20183;-70
2022/03/21 01:12:03;;;;;;;84.03;50.63;;;4.60;99.90;;;;;;5047516;28;20183;-69
2022/03/21 01:14:31;;;;;;;85.57;51.33;;;4.60;99.90;;;;;;5048413;28;20229;-69
2022/03/21 01:16:57;;;;;;;88.68;52.63;;;4.50;99.90;;;;;;5058020;28;20179;-71
2022/03/21 01:19:24;;;;;;;78.70;49.53;;;4.60;99.90;;;;;;5057359;28;20241;-69
2022/03/21 01:21:50;;;;;;;84.40;52.25;;;4.50;99.90;;;;;;5055386;28;20222;-71
2022/03/21 01:24:15;;;;;;;83.30;51.78;;;4.60;99.90;;;;;;5068629;28;20548;-70
2022/03/21 01:26:41;;;;;;;85.88;50.90;;;4.60;99.90;;;;;;5065835;28;20229;-70
2022/03/21 01:29:07;;;;;;;85.57;51.45;;;4.60;99.90;;;;;;5068564;28;20202;-71
2022/03/21 01:31:33;;;;;;;84.40;52.35;;;4.50;99.90;;;;;;5064257;28;20635;-69
2022/03/21 01:33:58;;;;;;;83.93;50.78;;;4.50;99.90;;;;;;5067380;28;20305;-69
2022/03/21 01:36:24;;;;;;;83.70;50.80;;;4.50;99.90;;;;;;5067988;28;20228;-70
2022/03/21 01:38:50;;;;;;;85.45;52.80;;;4.50;99.90;;;;;;5067008;28;20223;-68
2022/03/21 01:41:15;;;;;;;86.60;51.95;;;4.40;99.90;;;;;;5066593;28;20190;-68
2022/03/21 01:44:01;;;;;;;84.40;51.13;;;4.40;99.90;;;;;;5062822;28;20195;-67
2022/03/21 01:46:28;;;;;;;86.15;51.60;;;4.30;99.90;;;;;;5049681;28;20265;-68
2022/03/21 01:48:54;;;;;;;90.65;53.22;;;4.30;99.90;;;;;;5066449;28;20198;-69
2022/03/21 01:51:20;;;;;;;85.43;52.65;;;4.30;99.90;;;;;;5066202;28;20202;-69
2022/03/21 01:56:31;;;;;;;95.90;51.72;;;4.30;99.90;;;;;;5065289;28;20190;-69
2022/03/21 01:58:57;;;;;;;88.82;52.17;;;4.30;99.90;;;;;;5068186;28;20194;-69
2022/03/21 02:01:23;;;;;;;94.53;52.58;;;4.30;99.90;;;;;;5067913;28;20267;-69
2022/03/21 02:03:50;;;;;;;87.13;52.08;;;4.30;99.90;;;;;;5066715;28;20257;-70
2022/03/21 02:06:16;;;;;;;87.65;51.30;;;4.30;99.90;;;;;;5063526;28;20269;-69
2022/03/21 02:08:43;;;;;;;89.03;53.20;;;4.30;99.90;;;;;;5068859;28;20313;-69
2022/03/21 02:11:10;;;;;;;83.22;50.67;;;4.30;99.90;;;;;;5064940;28;20241;-69
2022/03/21 02:13:36;;;;;;;85.38;50.08;;;4.40;99.90;;;;;;5061553;28;20759;-69
2022/03/21 02:16:04;;;;;;;87.35;50.42;;;4.30;99.90;;;;;;5064657;28;20328;-70
2022/03/21 02:18:32;;;;;;;87.70;51.88;;;4.30;99.90;;;;;;5062446;28;21058;-70
2022/03/21 02:21:00;;;;;;;88.85;51.50;;;4.30;99.90;;;;;;5064712;28;20639;-70
2022/03/21 02:23:34;;;;;;;91.50;53.15;;;4.30;99.90;;;;;;5066343;28;20714;-70
2022/03/21 02:26:01;;;;;;;90.13;51.60;;;4.30;99.90;;;;;;5065754;28;20677;-69
2022/03/21 02:28:29;;;;;;;80.07;47.35;;;4.30;99.90;;;;;;5049441;28;20744;-71
2022/03/21 02:30:57;;;;;;;87.57;50.88;;;4.30;99.90;;;;;;5065521;28;20183;-71
2022/03/21 02:33:24;;;;;;;91.72;51.22;;;4.30;99.90;;;;;;5062203;28;20206;-70
2022/03/21 02:35:50;;;;;;;85.32;50.47;;;4.30;99.90;;;;;;5064076;28;20659;-69
2022/03/21 02:38:18;;;;;;;85.20;51.75;;;4.30;99.90;;;;;;5065155;28;20189;-69
2022/03/21 02:40:43;;;;;;;85.20;51.78;;;4.30;99.90;;;;;;5066111;28;20211;-70
2022/03/21 02:43:09;;;;;;;88.97;52.47;;;4.20;99.90;;;;;;5066183;28;20678;-70
2022/03/21 02:45:35;;;;;;;90.88;53.88;;;4.20;99.90;;;;;;5063515;28;20189;-67
2022/03/21 02:48:00;;;;;;;91.05;52.30;;;4.20;99.90;;;;;;5066972;28;20197;-69
2022/03/21 02:50:39;;;;;;;89.78;53.13;;;4.20;99.90;;;;;;5062144;28;20198;-70
2022/03/21 02:53:06;;;;;;;90.38;53.08;;;4.20;99.90;;;;;;5065714;28;20210;-68
2022/03/21 02:55:32;;;;;;;92.00;52.95;;;4.20;99.90;;;;;;5065602;28;20650;-69
2022/03/21 02:57:58;;;;;;;90.35;53.03;;;4.10;99.90;;;;;;5066289;28;20539;-69
2022/03/21 03:00:24;;;;;;;91.18;53.88;;;4.10;99.90;;;;;;5065391;28;20204;-69
2022/03/21 03:02:49;;;;;;;92.88;55.00;;;4.10;99.90;;;;;;5064781;28;20186;-68
2022/03/21 03:05:15;;;;;;;86.53;53.47;;;4.10;99.90;;;;;;5064762;28;20301;-69
2022/03/21 03:07:40;;;;;;;91.20;53.85;;;4.10;99.90;;;;;;5066064;28;20187;-69
2022/03/21 03:10:06;;;;;;;97.97;54.85;;;4.10;99.90;;;;;;5065451;28;20355;-68
2022/03/21 03:12:32;;;;;;;97.72;65.32;;;4.00;99.90;;;;;;5067657;28;20793;-69
2022/03/21 03:14:58;;;;;;;97.32;68.00;;;4.30;99.90;;;;;;5064179;28;20430;-68
2022/03/21 03:17:24;;;;;;;100.57;70.57;;;4.70;99.90;;;;;;5067038;28;20906;-67
2022/03/21 03:19:50;;;;;;;101.43;70.90;;;4.90;99.90;;;;;;5065376;28;20412;-68
2022/03/21 03:22:17;;;;;;;96.13;69.97;;;4.90;99.90;;;;;;5057551;28;20418;-68
2022/03/21 03:24:44;;;;;;;101.95;72.70;;;5.00;99.90;;;;;;5048136;28;20462;-69
2022/03/21 03:27:09;;;;;;;95.45;68.75;;;5.00;99.90;;;;;;5049597;28;20504;-66
2022/03/21 03:29:35;;;;;;;92.55;60.78;;;5.10;99.90;;;;;;5049078;28;20341;-68
2022/03/21 03:32:03;;;;;;;96.90;58.30;;;4.70;99.90;;;;;;5052003;28;20179;-68
2022/03/21 03:34:30;;;;;;;93.95;57.75;;;4.50;99.90;;;;;;5030583;28;20297;-67
2022/03/21 03:36:56;;;;;;;97.80;54.90;;;4.30;99.90;;;;;;5047188;28;20191;-68
2022/03/21 03:39:22;;;;;;;94.20;55.42;;;4.20;99.90;;;;;;5048648;28;20713;-69
2022/03/21 03:41:47;;;;;;;88.80;53.03;;;4.10;99.90;;;;;;5050900;28;20176;-70
2022/03/21 03:44:14;;;;;;;83.13;51.20;;;4.10;99.90;;;;;;5047603;28;20198;-68
2022/03/21 03:46:40;;;;;;;89.20;54.10;;;4.00;99.90;;;;;;5051671;28;20244;-69
2022/03/21 03:49:06;;;;;;;96.68;54.13;;;4.00;99.90;;;;;;5048597;28;20640;-69
2022/03/21 03:51:31;;;;;;;99.38;55.15;;;4.00;99.90;;;;;;5047377;28;20499;-69
2022/03/21 03:53:57;;;;;;;95.50;53.17;;;4.00;99.90;;;;;;5047668;28;20203;-69
2022/03/21 03:56:23;;;;;;;94.78;53.45;;;3.90;99.90;;;;;;5050362;28;20602;-68
2022/03/21 03:58:48;;;;;;;93.32;54.10;;;3.90;99.90;;;;;;5048985;28;20270;-68
2022/03/21 04:01:14;;;;;;;98.95;55.05;;;3.90;99.90;;;;;;5047077;28;20183;-68
2022/03/21 04:03:45;;;;;;;95.80;53.42;;;3.90;99.90;;;;;;5047592;28;20223;-68
2022/03/21 04:06:17;;;;;;;89.32;52.47;;;3.80;99.90;;;;;;5045941;28;20191;-69
2022/03/21 04:08:44;;;;;;;93.15;54.00;;;3.90;99.90;;;;;;5045930;28;20186;-69
2022/03/21 04:11:10;;;;;;;95.20;53.33;;;3.80;99.90;;;;;;5047826;28;20214;-67
2022/03/21 04:13:36;;;;;;;87.32;51.95;;;3.80;99.90;;;;;;5047718;28;20900;-69
2022/03/21 04:16:02;;;;;;;92.28;52.97;;;3.80;99.90;;;;;;5050177;28;20191;-68
2022/03/21 04:18:28;;;;;;;91.88;54.22;;;3.80;99.90;;;;;;5029028;28;20662;-69
2022/03/21 04:20:54;;;;;;;95.57;53.92;;;3.80;99.90;;;;;;5049364;28;20179;-69
2022/03/21 04:23:20;;;;;;;88.68;52.88;;;3.70;99.90;;;;;;5035690;28;20219;-69
2022/03/21 04:25:47;;;;;;;95.93;55.13;;;3.70;99.90;;;;;;5046327;28;20195;-69
2022/03/21 04:28:17;;;;;;;92.07;53.97;;;3.70;99.90;;;;;;5046724;28;20593;-68
2022/03/21 04:30:43;;;;;;;95.20;54.67;;;3.70;99.90;;;;;;5048195;28;20187;-70
2022/03/21 04:33:10;;;;;;;95.82;55.47;;;3.60;99.90;;;;;;5050692;28;20260;-70
2022/03/21 04:35:37;;;;;;;97.72;56.25;;;3.60;99.90;;;;;;5046671;28;20202;-70
2022/03/21 04:38:04;;;;;;;98.97;55.92;;;3.50;99.90;;;;;;5045850;28;20299;-70
2022/03/21 04:40:29;;;;;;;96.22;55.08;;;3.50;99.90;;;;;;5044566;28;20207;-69
2022/03/21 04:42:55;;;;;;;97.38;54.45;;;3.50;99.90;;;;;;5047714;28;20215;-69
2022/03/21 04:45:21;;;;;;;96.40;54.80;;;3.50;99.90;;;;;;5045470;28;20278;-68
2022/03/21 04:47:47;;;;;;;94.47;55.47;;;3.50;99.90;;;;;;5046538;28;20183;-68
2022/03/21 04:50:13;;;;;;;97.95;56.00;;;3.50;99.90;;;;;;5046817;28;20293;-67
2022/03/21 04:52:39;;;;;;;100.22;56.53;;;3.40;99.90;;;;;;5049007;28;20195;-69
2022/03/21 04:55:08;;;;;;;98.93;56.47;;;3.50;99.90;;;;;;5045947;28;20191;-68
2022/03/21 04:57:35;;;;;;;96.32;54.80;;;3.50;99.90;;;;;;5065705;28;20248;-68
2022/03/21 05:00:05;;;;;;;98.55;58.55;;;3.40;99.90;;;;;;5030060;28;20279;-68
2022/03/21 05:02:31;;;;;;;92.20;53.03;;;3.50;99.90;;;;;;5048176;28;20180;-68
2022/03/21 05:04:57;;;;;;;100.07;56.53;;;3.50;99.90;;;;;;5045433;28;20194;-68
2022/03/21 05:07:22;;;;;;;96.55;55.95;;;3.40;99.90;;;;;;5049573;28;20711;-68
2022/03/21 05:09:48;;;;;;;98.32;54.50;;;3.50;99.90;;;;;;5046838;28;20643;-66
2022/03/21 05:12:14;;;;;;;95.45;55.65;;;3.50;99.90;;;;;;5045194;28;20183;-67
2022/03/21 05:14:40;;;;;;;104.75;57.00;;;3.50;99.90;;;;;;5038954;28;20231;-67
2022/03/21 05:17:05;;;;;;;101.82;55.60;;;3.50;99.90;;;;;;5045222;28;20183;-67
2022/03/21 05:19:34;;;;;;;97.82;55.38;;;3.40;99.90;;;;;;5044648;28;20183;-68
2022/03/21 05:22:01;;;;;;;101.97;56.80;;;3.40;99.90;;;;;;5056992;28;20226;-68
2022/03/21 05:32:40;;;;;;;95.80;55.35;;;3.40;99.90;;;;;;5088219;28;20672;-68
2022/03/21 05:37:50;;;;;;;102.07;54.83;;;3.30;99.90;;;;;;5089559;28;20192;-69
2022/03/21 05:40:31;;;;;;;96.57;54.80;;;3.20;99.90;;;;;;5068553;28;20185;-69
2022/03/21 05:42:57;;;;;;;99.03;55.65;;;3.20;99.90;;;;;;5087130;28;20190;-69
2022/03/21 05:45:23;;;;;;;95.32;55.58;;;3.20;99.90;;;;;;5083686;28;20201;-69
2022/03/21 05:50:37;;;;;;;98.93;55.88;;;3.10;99.90;;;;;;5080476;28;20194;-68
2022/03/21 05:53:04;;;;;;;100.65;56.15;;;3.10;99.90;;;;;;5083210;28;20962;-67
2022/03/21 05:55:30;;;;;;;103.00;57.92;;;3.10;99.90;;;;;;5049975;28;20181;-68
2022/03/21 05:57:59;;;;;;;105.28;56.72;;;3.10;99.90;;;;;;5083834;28;20709;-68
2022/03/21 06:00:26;;;;;;;98.30;56.78;;;3.10;99.90;;;;;;5067857;28;20242;-66
2022/03/21 06:02:53;;;;;;;103.60;58.08;;;3.10;99.90;;;;;;5087164;28;20250;-66
2022/03/21 06:05:20;;;;;;;106.95;59.75;;;3.10;99.90;;;;;;5069065;28;20206;-65
2022/03/21 06:07:46;;;;;;;102.68;57.42;;;3.10;99.90;;;;;;5089098;28;20272;-66
2022/03/21 06:10:12;;;;;;;102.40;57.45;;;3.10;99.90;;;;;;5086107;28;20185;-67
2022/03/21 06:12:40;;;;;;;103.60;57.55;;;3.10;99.90;;;;;;5067124;28;20186;-65
2022/03/21 06:15:07;;;;;;;108.32;73.15;;;3.10;99.90;;;;;;5086020;28;20452;-66
2022/03/21 06:17:39;;;;;;;106.38;61.33;;;3.50;99.90;;;;;;5069768;28;20300;-66
2022/03/21 06:20:10;;;;;;;107.45;60.85;;;3.40;99.90;;;;;;5087623;28;20184;-66
2022/03/21 06:22:36;;;;;;;96.43;57.13;;;3.40;99.90;;;;;;5066474;28;20554;-66
2022/03/21 06:25:02;;;;;;;102.70;56.53;;;3.40;99.90;;;;;;5065701;28;20183;-66
2022/03/21 06:27:28;;;;;;;96.47;56.78;;;3.40;99.90;;;;;;5064566;28;20197;-67
2022/03/21 06:29:54;;;;;;;98.53;58.15;;;3.40;99.90;;;;;;5065160;28;20174;-66
2022/03/21 06:32:19;;;;;;;98.63;56.25;;;3.40;99.90;;;;;;5067975;28;20571;-65
2022/03/21 06:34:45;;;;;;;105.07;58.63;;;3.40;99.90;;;;;;5066676;28;20260;-66
2022/03/21 06:37:11;;;;;;;100.13;57.42;;;3.40;99.90;;;;;;5068482;28;20198;-67
2022/03/21 06:39:37;;;;;;;101.10;56.40;;;3.50;99.90;;;;;;5065822;28;20175;-66
2022/03/21 06:42:03;;;;;;;99.70;57.55;;;3.60;99.90;;;;;;5064821;28;20553;-67
2022/03/21 06:44:29;;;;;;;101.90;57.38;;;3.60;99.90;;;;;;5062226;28;20191;-66
2022/03/21 06:46:56;;;;;;;107.05;58.17;;;3.60;99.90;;;;;;5071204;28;20182;-66
2022/03/21 06:49:27;;;;;;;102.80;56.80;;;3.70;99.90;;;;;;5072752;28;20324;-63
2022/03/21 06:51:53;;;;;;;91.22;53.05;;;3.80;99.90;;;;;;5071576;28;20677;-66
2022/03/21 06:54:18;;;;;;;91.10;51.90;;;3.80;99.90;;;;;;5070948;28;20252;-67
2022/03/21 06:56:44;;;;;;;98.72;57.33;;;3.90;99.90;;;;;;5070111;28;20210;-66
2022/03/21 06:59:09;;;;;;;87.32;50.80;;;3.90;99.90;;;;;;5070371;28;20309;-66
2022/03/21 07:01:36;;;;;;;99.05;55.78;;;4.00;99.90;;;;;;5069373;28;20212;-66
2022/03/21 07:04:02;;;;;;;90.63;52.60;;;4.00;99.90;;;;;;5065340;28;20189;-66
2022/03/21 07:06:28;;;;;;;92.85;54.88;;;4.10;99.90;;;;;;5067056;28;20189;-67
2022/03/21 07:08:53;;;;;;;90.47;54.10;;;4.10;99.90;;;;;;5071720;28;20268;-66
2022/03/21 07:11:21;;;;;;;85.20;51.05;;;4.20;99.90;;;;;;5070444;28;20183;-67
2022/03/21 07:13:47;;;;;;;93.95;54.42;;;4.20;99.90;;;;;;5066323;28;20565;-67
2022/03/21 07:16:16;;;;;;;96.68;55.25;;;4.30;99.90;;;;;;5071534;28;20186;-67
2022/03/21 07:18:45;;;;;;;99.90;57.22;;;4.30;99.90;;;;;;5071533;28;20229;-65
2022/03/21 07:21:13;;;;;;;98.20;65.57;;;4.40;99.90;;;;;;5066751;28;20513;-66
2022/03/21 07:23:39;;;;;;;98.10;67.18;;;4.80;99.90;;;;;;5088745;28;20441;-65
2022/03/21 07:26:04;;;;;;;91.28;62.58;;;5.20;99.90;;;;;;5089979;28;20487;-66
2022/03/21 07:28:31;;;;;;;91.87;63.73;;;5.40;99.90;;;;;;5087860;28;20413;-66
2022/03/21 07:30:57;;;;;;;89.85;61.60;;;5.60;99.90;;;;;;5071624;28;20410;-66
2022/03/21 07:33:24;;;;;;;89.38;62.45;;;5.80;99.90;;;;;;5089034;28;20495;-66
2022/03/21 07:35:50;;;;;;;81.60;57.10;;;6.00;99.90;;;;;;5071773;28;20410;-67
2022/03/21 07:38:19;;;;;;;83.95;52.72;;;6.10;99.90;;;;;;5057123;28;20541;-66
2022/03/21 07:40:49;;;;;;;95.90;53.75;;;5.80;99.90;;;;;;5056543;28;20262;-66
2022/03/21 07:43:15;;;;;;;83.13;50.10;;;5.60;99.90;;;;;;5089615;28;20654;-67
2022/03/21 07:48:27;;;;;;;83.50;50.25;;;5.40;99.90;;;;;;5091655;28;20185;-68
2022/03/21 07:50:53;;;;;;;93.32;54.50;;;5.40;99.90;;;;;;5072560;28;20190;-65
2022/03/21 07:53:19;;;;;;;83.43;48.22;;;5.40;99.90;;;;;;5090909;28;20201;-67
2022/03/21 07:55:45;;;;;;;81.30;49.78;;;5.40;99.90;;;;;;5071812;28;20201;-69
2022/03/21 07:58:12;;;;;;;99.95;54.20;;;5.40;99.90;;;;;;5088137;28;20560;-69
2022/03/21 08:00:37;;;;;;;94.03;54.40;;;5.40;99.90;;;;;;5089933;28;20189;-68
2022/03/21 08:03:03;;;;;;;89.88;53.13;;;5.50;99.90;;;;;;5086324;28;20182;-67
2022/03/21 08:05:29;;;;;;;89.47;53.63;;;5.50;99.90;;;;;;5073128;28;20676;-68
2022/03/21 08:07:56;;;;;;;81.30;50.15;;;5.60;99.90;;;;;;5072434;28;20327;-67
2022/03/21 08:10:24;;;;;;;82.05;48.70;;;5.70;99.90;;;;;;5091022;28;20642;-67
2022/03/21 08:12:50;;;;;;;87.30;53.30;;;5.70;99.90;;;;;;5071412;28;20206;-67
2022/03/21 08:15:17;;;;;;;87.88;53.38;;;5.90;99.90;;;;;;5089283;28;20186;-67
2022/03/21 08:17:52;;;;;;;89.40;54.50;;;5.90;99.90;;;;;;5053320;28;20186;-65
2022/03/21 08:20:22;;;;;;;80.75;49.95;;;6.00;99.90;;;;;;5090200;28;20193;-69
2022/03/21 08:22:48;;;;;;;74.50;45.55;;;6.10;99.90;;;;;;5090715;28;20317;-65
2022/03/21 08:25:17;;;;;;;73.50;44.25;;;6.20;99.90;;;;;;5089216;28;20269;-67
2022/03/21 08:27:44;;;;;;;81.45;50.47;;;6.30;99.90;;;;;;5070616;28;20181;-65
2022/03/21 08:30:15;;;;;;;67.22;42.30;;;6.50;99.90;;;;;;5071649;28;20201;-69
2022/03/21 08:32:42;;;;;;;76.93;46.72;;;6.60;99.90;;;;;;5088273;28;20186;-70
2022/03/21 08:35:09;;;;;;;75.30;48.28;;;6.70;99.90;;;;;;5091211;28;20631;-68
2022/03/21 08:37:34;;;;;;;67.78;47.63;;;6.90;99.90;;;;;;5070759;28;20420;-70
2022/03/21 08:40:00;;;;;;;56.75;41.47;;;7.60;99.90;;;;;;5089667;28;20875;-70
2022/03/21 08:42:28;;;;;;;56.37;42.43;;;8.50;99.90;;;;;;5033231;28;20412;-67
2022/03/21 08:44:53;;;;;;;52.58;38.80;;;9.70;97.60;;;;;;5082195;28;20425;-71
2022/03/21 08:47:19;;;;;;;51.27;37.90;;;11.20;93.00;;;;;;5069320;28;20409;-67
2022/03/21 08:49:45;;;;;;;47.70;36.83;;;12.70;86.40;;;;;;5071323;28;20429;-71
2022/03/21 08:52:10;;;;;;;53.70;35.78;;;14.10;77.80;;;;;;5089504;28;20197;-70
2022/03/21 08:54:36;;;;;;;;;;;14.10;83.80;;;;;;5090363;28;20073;-70
2022/03/21 08:57:04;;;;;;;;;;;14.20;86.70;;;;;;5088863;28;19914;-69
2022/03/21 08:59:30;;;;;;;;;;;14.60;90.50;;;;;;5088112;28;20015;-69
2022/03/21 09:01:56;;;;;;;50.28;33.20;;;15.20;91.50;;;;;;5069420;28;20682;-68
2022/03/21 09:04:22;;;;;;;44.80;35.20;;;16.30;90.90;;;;;;5087529;28;20422;-67
2022/03/21 09:06:48;;;;;;;42.95;33.53;;;20.10;55.50;;;;;;5087054;28;20510;-71
2022/03/21 09:09:15;;;;;;;39.42;31.70;;;22.50;44.70;;;;;;5069918;28;20441;-70
2022/03/21 09:11:41;;;;;;;43.65;33.28;;;23.20;41.30;;;;;;5086153;28;20413;-67
2022/03/21 09:14:08;;;;;;;39.22;33.15;;;22.80;40.20;;;;;;5063436;28;20428;-72
2022/03/21 09:16:38;;;;;;;;;;;22.00;41.00;;;;;;5085880;28;20024;-70
2022/03/21 09:19:04;;;;;;;;;;;20.40;46.60;;;;;;5085894;28;19947;-70
2022/03/21 09:21:29;;;;;;;44.40;34.67;;;19.00;50.80;;;;;;5082274;28;20427;-71
2022/03/21 09:23:55;;;;;;;;;;;19.10;49.50;;;;;;5088592;28;20066;-69
2022/03/21 09:26:21;;;;;;;45.75;31.85;;;18.10;52.20;;;;;;5085687;28;20192;-70
2022/03/21 09:28:48;;;;;;;45.15;32.42;;;17.50;55.60;;;;;;5086964;28;20190;-69
2022/03/21 09:31:14;;;;;;;44.20;32.70;;;16.90;57.20;;;;;;5087187;28;20190;-68
2022/03/21 09:33:41;;;;;;;;;;;16.50;58.30;;;;;;5088522;28;20473;-66
2022/03/21 09:36:07;;;;;;;;;;;16.10;59.70;;;;;;5088133;28;19962;-67
2022/03/21 09:38:32;;;;;;;;;;;15.80;62.00;;;;;;5087864;28;19939;-66
2022/03/21 09:40:58;;;;;;;;;;;15.70;63.60;;;;;;5070224;28;20346;-67
2022/03/21 09:43:24;;;;;;;48.28;33.35;;;15.60;65.00;;;;;;5089456;28;20196;-69
2022/03/21 09:45:51;;;;;;;42.83;33.80;;;15.70;65.00;;;;;;5085367;28;20491;-69
2022/03/21 09:48:19;;;;;;;45.70;34.08;;;16.80;57.50;;;;;;5086587;28;20414;-68
2022/03/21 09:50:46;;;;;;;44.97;33.40;;;17.30;55.60;;;;;;5062457;28;20433;-68
2022/03/21 09:53:14;;;;;;;49.83;32.30;;;17.60;54.00;;;;;;5053143;28;20252;-65
2022/03/21 09:55:41;;;;;;;41.10;29.95;;;17.10;56.40;;;;;;5088093;28;20285;-68
2022/03/21 09:58:10;;;;;;;43.55;30.85;;;16.80;57.70;;;;;;5085731;28;20217;-67
2022/03/21 10:00:40;;;;;;;39.00;28.48;;;16.60;58.40;;;;;;5087959;28;20265;-65
2022/03/21 10:03:06;;;;;;;46.90;29.08;;;16.50;58.80;;;;;;5069784;28;20573;-67
2022/03/21 10:05:36;;;;;;;43.60;28.88;;;16.50;58.70;;;;;;5068419;28;20186;-67
2022/03/21 10:08:28;;;;;;;47.83;30.35;;;16.50;58.30;;;;;;5082678;28;20200;-68
2022/03/21 10:11:04;;;;;;;44.70;27.33;;;16.40;58.30;;;;;;5087140;28;20193;-68
2022/03/21 10:13:37;;;;;;;;;;;16.60;58.30;;;;;;5087525;28;20122;-68
2022/03/21 10:16:14;;;;;;;36.92;28.00;;;17.00;59.50;;;;;;5087889;28;20494;-68
2022/03/21 10:18:57;;;;;;;35.70;27.23;;;20.10;47.60;;;;;;5085437;28;20928;-65
2022/03/21 10:21:27;;;;;;;36.05;25.33;;;21.50;42.70;;;;;;5084184;28;20410;-65
2022/03/21 10:24:02;;;;;;;33.65;25.88;;;21.50;41.40;;;;;;5085612;28;20466;-67
2022/03/21 10:26:36;;;;;;;34.05;25.83;;;21.00;41.30;;;;;;5084490;28;20437;-66
2022/03/21 10:29:02;;;;;;;;;;;20.40;44.00;;;;;;5054185;28;20028;-66
2022/03/21 10:31:34;;;;;;;;;;;19.60;46.90;;;;;;5086891;28;19907;-68
2022/03/21 10:34:01;;;;;;;37.38;25.00;;;18.90;49.40;;;;;;5069272;28;20269;-66
2022/03/21 10:36:26;;;;;;;34.70;25.67;;;18.50;49.50;;;;;;5066478;28;20409;-70
2022/03/21 10:39:09;;;;;;;35.10;25.83;;;18.60;48.10;;;;;;5082870;28;20405;-67
2022/03/21 10:41:37;;;;;;;33.95;26.08;;;18.70;47.60;;;;;;5082640;28;20887;-67
2022/03/21 10:44:07;;;;;;;32.67;24.10;;;18.80;46.90;;;;;;5088819;28;20178;-69
2022/03/21 10:46:34;;;;;;;38.30;23.58;;;18.50;48.60;;;;;;5082989;28;20196;-68
2022/03/21 10:49:10;;;;;;;34.83;21.23;;;18.20;49.40;;;;;;5087268;28;20564;-67
2022/03/21 10:51:48;;;;;;;34.03;20.95;;;18.10;48.90;;;;;;5067201;28;20201;-67
2022/03/21 10:54:36;;;;;;;30.08;21.27;;;18.00;48.50;;;;;;5085793;28;20314;-67
2022/03/21 10:57:03;;;;;;;41.45;20.83;;;17.90;49.20;;;;;;5085824;28;20178;-65
2022/03/21 10:59:29;;;;;;;35.50;21.60;;;18.00;48.90;;;;;;5087509;28;20186;-69
2022/03/21 11:02:12;;;;;;;31.88;21.35;;;18.00;48.50;;;;;;5084511;28;20703;-65
2022/03/21 11:04:42;;;;;;;27.60;19.58;;;18.10;48.70;;;;;;5083415;28;20201;-64
2022/03/21 11:07:11;;;;;;;30.00;21.25;;;18.20;48.20;;;;;;5065433;28;20265;-70
2022/03/21 11:09:39;;;;;;;29.45;19.60;;;18.20;48.50;;;;;;5068217;28;20653;-69
2022/03/21 11:12:09;;;;;;;29.08;18.95;;;18.30;49.50;;;;;;5081951;28;20182;-67
2022/03/21 11:14:39;;;;;;;31.63;18.98;;;18.40;50.40;;;;;;5087290;28;20661;-70
2022/03/21 11:17:07;;;;;;;26.23;17.33;;;18.40;50.10;;;;;;5068752;28;20240;-67
2022/03/21 11:19:33;;;;;;;24.02;16.83;;;18.40;49.80;;;;;;5070777;28;20687;-71
2022/03/21 11:22:00;;;;;;;24.90;16.40;;;18.40;51.40;;;;;;5083604;28;20426;-69
2022/03/21 11:24:30;;;;;;;24.45;16.92;;;19.00;43.90;;;;;;5085551;28;20444;-67
2022/03/21 11:27:25;;;;;;;22.77;16.75;;;19.40;42.40;;;;;;5084867;28;20413;-67
2022/03/21 11:30:28;;;;;;;25.98;17.40;;;19.80;42.70;;;;;;5086568;28;20413;-66
2022/03/21 11:33:39;;;;;;;24.95;17.48;;;20.20;42.40;;;;;;5083746;28;20445;-65
2022/03/21 11:36:09;;;;;;;25.53;18.37;;;20.50;39.10;;;;;;5086335;28;20416;-66
2022/03/21 11:38:41;;;;;;;26.40;18.35;;;20.80;42.70;;;;;;5086955;28;20402;-65
2022/03/21 11:41:14;;;;;;;25.50;17.00;;;21.10;37.90;;;;;;5070962;28;20797;-65
2022/03/21 11:43:42;;;;;;;20.53;15.70;;;21.30;39.90;;;;;;5071668;28;20417;-64
2022/03/21 11:46:27;;;;;;;21.05;15.70;;;21.30;37.20;;;;;;5090493;28;20417;-65
2022/03/21 11:49:04;;;;;;;23.65;15.95;;;21.30;38.90;;;;;;5069643;28;20452;-63
2022/03/21 11:51:37;;;;;;;21.65;15.63;;;21.20;36.00;;;;;;5087790;28;20421;-65
2022/03/21 11:54:06;;;;;;;21.55;14.73;;;21.30;36.90;;;;;;5070486;28;20445;-65
2022/03/21 11:56:41;;;;;;;22.23;15.40;;;21.40;34.40;;;;;;5090480;28;20402;-66
2022/03/21 11:59:08;;;;;;;21.50;16.08;;;21.60;35.20;;;;;;5088973;28;22378;-64
2022/03/21 12:01:34;;;;;;;20.90;15.32;;;21.90;37.40;;;;;;5088897;28;20968;-65
2022/03/21 12:04:26;;;;;;;21.67;15.52;;;22.20;33.40;;;;;;5068838;28;20762;-65
2022/03/21 12:07:00;;;;;;;20.33;15.02;;;22.60;32.30;;;;;;5062458;28;20411;-66
2022/03/21 12:09:40;;;;;;;21.75;15.40;;;23.00;34.40;;;;;;5088048;28;20447;-66
2022/03/21 12:12:06;;;;;;;21.38;15.10;;;23.30;30.90;;;;;;5087937;28;20409;-65
2022/03/21 12:14:40;;;;;;;21.85;15.82;;;23.60;30.80;;;;;;5068146;28;20759;-64
2022/03/21 12:17:12;;;;;;;20.95;15.55;;;23.90;30.80;;;;;;5088215;28;20424;-65
2022/03/21 12:19:51;;;;;;;24.15;15.43;;;24.30;29.90;;;;;;5088565;28;20431;-66
2022/03/21 12:22:29;;;;;;;20.45;15.15;;;24.40;29.60;;;;;;5087318;28;20994;-65
2022/03/21 12:25:00;;;;;;;23.92;16.08;;;24.50;30.00;;;;;;5085154;28;21124;-65
2022/03/21 12:27:45;;;;;;;23.42;16.55;;;24.50;28.90;;;;;;5071063;28;20790;-66
2022/03/21 12:33:10;;;;;;;25.23;16.98;;;24.30;29.40;;;;;;5070538;28;20509;-66
2022/03/21 12:35:39;;;;;;;24.80;16.13;;;24.30;29.80;;;;;;5085788;28;20398;-66
2022/03/21 12:38:10;;;;;;;24.15;16.17;;;24.50;30.80;;;;;;5084896;28;20824;-66
2022/03/21 12:40:47;;;;;;;24.10;15.53;;;24.70;29.80;;;;;;5088688;28;20414;-65
2022/03/21 12:43:20;;;;;;;28.58;16.85;;;25.10;30.30;;;;;;5069085;28;20776;-64
2022/03/21 12:45:49;;;;;;;27.27;16.88;;;25.10;28.80;;;;;;5068891;28;20438;-66
2022/03/21 12:48:17;;;;;;;23.58;16.83;;;25.10;29.30;;;;;;5087927;28;20813;-64
2022/03/21 12:50:47;;;;;;;23.25;16.17;;;25.20;28.40;;;;;;5089372;28;20774;-65
2022/03/21 12:53:19;;;;;;;23.40;16.90;;;25.20;29.60;;;;;;5083687;28;20471;-64
2022/03/21 12:56:02;;;;;;;23.10;17.15;;;25.30;29.20;;;;;;5070918;28;20410;-68
2022/03/21 12:58:28;;;;;;;23.20;16.90;;;25.50;29.70;;;;;;5085933;28;20406;-66
2022/03/21 13:00:56;;;;;;;24.07;16.43;;;25.70;27.40;;;;;;5055446;28;20474;-65
2022/03/21 13:03:24;;;;;;;24.98;16.92;;;25.80;28.60;;;;;;5085774;28;20485;-67